sensor_id;sensor_type;location;lat;lon;timestamp;P1;P2;P0
78330;PMS7003;67594;53.854;-1.542;2023-03-01T00:01:59;0.75;0.75;0.00
78330;PMS7003;67594;53.854;-1.542;2023-03-01T00:04:25;0.00;0.00;0.00
78330;PMS7003;67594;53.854;-1.542;2023-03-01T00:06:50;0.00;0.00;0.00
78330;PMS7003;67594;53.854;-1.542;2023-03-01T00:09:16;0.00;0.00;0.00
78330;PMS7003;67594;53.854;-1.542;2023-03-01T00:11:41;0.00;0.00;0.00
78330;PMS7003;67594;53.854;-1.542;2023-03-01T00:14:08;0.00;0.00;0.00
78330;PMS7003;67594;53.854;-1.542;2023-03-01T00:16:37;0.00;0.00;0.00
78330;PMS7003;67594;53.854;-1.542;2023-03-01T00:19:04;0.00;0.00;0.00
78330;PMS7003;67594;53.854;-1.542;2023-03-01T00:21:30;0.00;0.00;0.00
78330;PMS7003;67594;53.854;-1.542;2023-03-01T00:23:56;0.00;0.00;0.00
78330;PMS7003;67594;53.854;-1.542;2023-03-01T00:26:22;0.00;0.00;0.00
78330;PMS7003;67594;53.854;-1.542;2023-03-01T00:28:48;0.00;0.00;0.00
78330;PMS7003;67594;53.854;-1.542;2023-03-01T00:31:15;0.00;0.00;0.00
78330;PMS7003;67594;53.854;-1.542;2023-03-01T00:33:43;0.00;0.00;0.00
78330;PMS7003;67594;53.854;-1.542;2023-03-01T00:36:09;0.00;0.00;0.00
78330;PMS7003;67594;53.854;-1.542;2023-03-01T00:38:36;0.00;0.00;0.00
78330;PMS7003;67594;53.854;-1.542;2023-03-01T00:41:03;0.00;0.00;0.00
78330;PMS7003;67594;53.854;-1.542;2023-03-01T00:43:33;0.00;0.00;0.00
78330;PMS7003;67594;53.854;-1.542;2023-03-01T00:46:00;0.00;0.00;0.00
78330;PMS7003;67594;53.854;-1.542;2023-03-01T00:48:26;0.00;0.00;0.00
78330;PMS7003;67594;53.854;-1.542;2023-03-01T00:50:51;0.00;0.00;0.00
78330;PMS7003;67594;53.854;-1.542;2023-03-01T00:53:16;0.00;0.00;0.00
78330;PMS7003;67594;53.854;-1.542;2023-03-01T00:55:42;0.00;0.00;0.00
78330;PMS7003;67594;53.854;-1.542;2023-03-01T00:58:07;0.00;0.00;0.00
78330;PMS7003;67594;53.854;-1.542;2023-03-01T01:00:32;0.00;0.00;0.00
78330;PMS7003;67594;53.854;-1.542;2023-03-01T01:02:58;0.00;0.00;0.00
78330;PMS7003;67594;53.854;-1.542;2023-03-01T01:05:23;0.00;0.00;0.00
78330;PMS7003;67594;53.854;-1.542;2023-03-01T01:07:48;0.00;0.00;0.00
78330;PMS7003;67594;53.854;-1.542;2023-03-01T01:10:13;0.00;0.00;0.00
78330;PMS7003;67594;53.854;-1.542;2023-03-01T01:12:39;0.00;0.00;0.00
78330;PMS7003;67594;53.854;-1.542;2023-03-01T01:15:04;0.00;0.00;0.00
78330;PMS7003;67594;53.854;-1.542;2023-03-01T01:17:30;0.00;0.00;0.00
78330;PMS7003;67594;53.854;-1.542;2023-03-01T01:19:55;0.00;0.00;0.00
78330;PMS7003;67594;53.854;-1.542;2023-03-01T01:22:20;0.00;0.00;0.00
78330;PMS7003;67594;53.854;-1.542;2023-03-01T01:24:46;0.00;0.00;0.00
78330;PMS7003;67594;53.854;-1.542;2023-03-01T01:27:11;0.00;0.00;0.00
78330;PMS7003;67594;53.854;-1.542;2023-03-01T01:29:36;0.00;0.00;0.00
78330;PMS7003;67594;53.854;-1.542;2023-03-01T01:32:02;0.00;0.00;0.00
78330;PMS7003;67594;53.854;-1.542;2023-03-01T01:34:27;0.00;0.00;0.00
78330;PMS7003;67594;53.854;-1.542;2023-03-01T01:36:52;0.00;0.00;0.00
78330;PMS7003;67594;53.854;-1.542;2023-03-01T01:39:18;0.00;0.00;0.00
78330;PMS7003;67594;53.854;-1.542;2023-03-01T01:41:44;0.00;0.00;0.00
78330;PMS7003;67594;53.854;-1.542;2023-03-01T01:49:51;0.00;0.00;0.00
78330;PMS7003;67594;53.854;-1.542;2023-03-01T01:52:29;0.00;0.00;0.00
78330;PMS7003;67594;53.854;-1.542;2023-03-01T01:57:43;0.00;0.00;0.00
78330;PMS7003;67594;53.854;-1.542;2023-03-01T02:00:21;0.00;0.00;0.00
78330;PMS7003;67594;53.854;-1.542;2023-03-01T02:02:50;0.00;0.00;0.00
78330;PMS7003;67594;53.854;-1.542;2023-03-01T02:05:28;0.00;0.00;0.00
78330;PMS7003;67594;53.854;-1.542;2023-03-01T02:08:02;0.00;0.00;0.00
78330;PMS7003;67594;53.854;-1.542;2023-03-01T02:10:27;0.00;0.00;0.00
78330;PMS7003;67594;53.854;-1.542;2023-03-01T02:12:54;0.00;0.00;0.00
78330;PMS7003;67594;53.854;-1.542;2023-03-01T02:15:20;0.00;0.00;0.00
78330;PMS7003;67594;53.854;-1.542;2023-03-01T02:17:45;0.00;0.00;0.00
78330;PMS7003;67594;53.854;-1.542;2023-03-01T02:20:21;0.00;0.00;0.00
78330;PMS7003;67594;53.854;-1.542;2023-03-01T02:22:48;0.00;0.00;0.00
78330;PMS7003;67594;53.854;-1.542;2023-03-01T02:30:28;0.00;0.00;0.00
78330;PMS7003;67594;53.854;-1.542;2023-03-01T02:32:56;0.00;0.00;0.00
78330;PMS7003;67594;53.854;-1.542;2023-03-01T02:35:23;0.00;0.00;0.00
78330;PMS7003;67594;53.854;-1.542;2023-03-01T02:37:49;0.00;0.00;0.00
78330;PMS7003;67594;53.854;-1.542;2023-03-01T02:40:16;0.00;0.00;0.00
78330;PMS7003;67594;53.854;-1.542;2023-03-01T02:42:45;0.00;0.00;0.00
78330;PMS7003;67594;53.854;-1.542;2023-03-01T02:45:15;0.00;0.00;0.00
78330;PMS7003;67594;53.854;-1.542;2023-03-01T02:47:41;0.00;0.00;0.00
78330;PMS7003;67594;53.854;-1.542;2023-03-01T02:53:01;0.00;0.00;0.00
78330;PMS7003;67594;53.854;-1.542;2023-03-01T02:55:34;0.00;0.00;0.00
78330;PMS7003;67594;53.854;-1.542;2023-03-01T02:57:59;0.00;0.00;0.00
78330;PMS7003;67594;53.854;-1.542;2023-03-01T03:00:32;0.00;0.00;0.00
78330;PMS7003;67594;53.854;-1.542;2023-03-01T03:03:02;0.00;0.00;0.00
78330;PMS7003;67594;53.854;-1.542;2023-03-01T03:05:30;0.00;0.00;0.00
78330;PMS7003;67594;53.854;-1.542;2023-03-01T03:07:56;0.00;0.00;0.00
78330;PMS7003;67594;53.854;-1.542;2023-03-01T03:10:24;0.00;0.00;0.00
78330;PMS7003;67594;53.854;-1.542;2023-03-01T03:12:54;0.00;0.00;0.00
78330;PMS7003;67594;53.854;-1.542;2023-03-01T03:15:22;0.00;0.00;0.00
78330;PMS7003;67594;53.854;-1.542;2023-03-01T03:17:48;0.00;0.00;0.00
78330;PMS7003;67594;53.854;-1.542;2023-03-01T03:20:14;0.00;0.00;0.00
78330;PMS7003;67594;53.854;-1.542;2023-03-01T03:22:42;0.00;0.00;0.00
78330;PMS7003;67594;53.854;-1.542;2023-03-01T03:25:07;0.00;0.00;0.00
78330;PMS7003;67594;53.854;-1.542;2023-03-01T03:27:33;0.00;0.00;0.00
78330;PMS7003;67594;53.854;-1.542;2023-03-01T03:29:58;0.00;0.00;0.00
78330;PMS7003;67594;53.854;-1.542;2023-03-01T03:32:23;0.00;0.00;0.00
78330;PMS7003;67594;53.854;-1.542;2023-03-01T03:34:49;0.00;0.00;0.00
78330;PMS7003;67594;53.854;-1.542;2023-03-01T03:37:14;0.00;0.00;0.00
78330;PMS7003;67594;53.854;-1.542;2023-03-01T03:39:39;0.00;0.00;0.00
78330;PMS7003;67594;53.854;-1.542;2023-03-01T03:42:04;0.00;0.00;0.00
78330;PMS7003;67594;53.854;-1.542;2023-03-01T03:44:30;0.00;0.00;0.00
78330;PMS7003;67594;53.854;-1.542;2023-03-01T03:46:55;0.00;0.00;0.00
78330;PMS7003;67594;53.854;-1.542;2023-03-01T03:49:20;0.00;0.00;0.00
78330;PMS7003;67594;53.854;-1.542;2023-03-01T03:51:46;0.00;0.00;0.00
78330;PMS7003;67594;53.854;-1.542;2023-03-01T03:54:11;0.00;0.00;0.00
78330;PMS7003;67594;53.854;-1.542;2023-03-01T03:56:36;0.00;0.00;0.00
78330;PMS7003;67594;53.854;-1.542;2023-03-01T03:59:01;0.00;0.00;0.00
78330;PMS7003;67594;53.854;-1.542;2023-03-01T04:01:27;0.00;0.00;0.00
78330;PMS7003;67594;53.854;-1.542;2023-03-01T04:03:52;0.00;0.00;0.00
78330;PMS7003;67594;53.854;-1.542;2023-03-01T04:06:17;0.00;0.00;0.00
78330;PMS7003;67594;53.854;-1.542;2023-03-01T04:08:43;0.00;0.00;0.00
78330;PMS7003;67594;53.854;-1.542;2023-03-01T04:11:08;0.00;0.00;0.00
78330;PMS7003;67594;53.854;-1.542;2023-03-01T04:13:33;0.00;0.00;0.00
78330;PMS7003;67594;53.854;-1.542;2023-03-01T04:15:59;0.00;0.00;0.00
78330;PMS7003;67594;53.854;-1.542;2023-03-01T04:18:24;0.00;0.00;0.00
78330;PMS7003;67594;53.854;-1.542;2023-03-01T04:20:49;0.00;0.00;0.00
78330;PMS7003;67594;53.854;-1.542;2023-03-01T04:23:16;0.00;0.00;0.00
78330;PMS7003;67594;53.854;-1.542;2023-03-01T04:25:50;0.00;0.00;0.00
78330;PMS7003;67594;53.854;-1.542;2023-03-01T04:28:16;0.00;0.00;0.00
78330;PMS7003;67594;53.854;-1.542;2023-03-01T04:30:41;0.00;0.00;0.00
78330;PMS7003;67594;53.854;-1.542;2023-03-01T04:33:07;0.00;0.00;0.00
78330;PMS7003;67594;53.854;-1.542;2023-03-01T04:35:34;0.00;0.00;0.00
78330;PMS7003;67594;53.854;-1.542;2023-03-01T04:38:01;0.00;0.00;0.00
78330;PMS7003;67594;53.854;-1.542;2023-03-01T04:40:26;0.00;0.00;0.00
78330;PMS7003;67594;53.854;-1.542;2023-03-01T04:42:52;0.00;0.00;0.00
78330;PMS7003;67594;53.854;-1.542;2023-03-01T04:45:17;0.00;0.00;0.00
78330;PMS7003;67594;53.854;-1.542;2023-03-01T04:47:43;0.00;0.00;0.00
78330;PMS7003;67594;53.854;-1.542;2023-03-01T04:50:11;0.00;0.00;0.00
78330;PMS7003;67594;53.854;-1.542;2023-03-01T04:52:40;0.00;0.00;0.00
78330;PMS7003;67594;53.854;-1.542;2023-03-01T04:55:06;0.00;0.00;0.00
78330;PMS7003;67594;53.854;-1.542;2023-03-01T04:57:32;0.00;0.00;0.00
78330;PMS7003;67594;53.854;-1.542;2023-03-01T04:59:58;0.00;0.00;0.00
78330;PMS7003;67594;53.854;-1.542;2023-03-01T05:02:23;0.00;0.00;0.00
78330;PMS7003;67594;53.854;-1.542;2023-03-01T05:04:48;0.00;0.00;0.00
78330;PMS7003;67594;53.854;-1.542;2023-03-01T05:07:14;0.00;0.00;0.00
78330;PMS7003;67594;53.854;-1.542;2023-03-01T05:09:39;0.00;0.00;0.00
78330;PMS7003;67594;53.854;-1.542;2023-03-01T05:12:04;0.00;0.00;0.00
78330;PMS7003;67594;53.854;-1.542;2023-03-01T05:14:30;0.00;0.00;0.00
78330;PMS7003;67594;53.854;-1.542;2023-03-01T05:16:55;0.00;0.00;0.00
78330;PMS7003;67594;53.854;-1.542;2023-03-01T05:19:20;0.00;0.00;0.00
78330;PMS7003;67594;53.854;-1.542;2023-03-01T05:21:46;0.00;0.00;0.00
78330;PMS7003;67594;53.854;-1.542;2023-03-01T05:24:11;0.00;0.00;0.00
78330;PMS7003;67594;53.854;-1.542;2023-03-01T05:26:36;0.00;0.00;0.00
78330;PMS7003;67594;53.854;-1.542;2023-03-01T05:29:02;0.00;0.00;0.00
78330;PMS7003;67594;53.854;-1.542;2023-03-01T05:31:27;0.00;0.00;0.00
78330;PMS7003;67594;53.854;-1.542;2023-03-01T05:33:53;0.00;0.00;0.00
78330;PMS7003;67594;53.854;-1.542;2023-03-01T05:36:18;0.00;0.00;0.00
78330;PMS7003;67594;53.854;-1.542;2023-03-01T05:38:43;0.00;0.00;0.00
78330;PMS7003;67594;53.854;-1.542;2023-03-01T05:41:13;0.00;0.00;0.00
78330;PMS7003;67594;53.854;-1.542;2023-03-01T05:43:39;0.00;0.00;0.00
78330;PMS7003;67594;53.854;-1.542;2023-03-01T05:46:04;0.00;0.00;0.00
78330;PMS7003;67594;53.854;-1.542;2023-03-01T05:48:30;0.00;0.00;0.00
78330;PMS7003;67594;53.854;-1.542;2023-03-01T05:50:58;0.00;0.00;0.00
78330;PMS7003;67594;53.854;-1.542;2023-03-01T05:53:24;0.25;0.00;0.00
78330;PMS7003;67594;53.854;-1.542;2023-03-01T05:55:49;0.00;0.00;0.00
78330;PMS7003;67594;53.854;-1.542;2023-03-01T05:58:16;0.00;0.00;0.00
78330;PMS7003;67594;53.854;-1.542;2023-03-01T06:00:43;0.00;0.00;0.00
78330;PMS7003;67594;53.854;-1.542;2023-03-01T06:03:10;0.00;0.00;0.00
78330;PMS7003;67594;53.854;-1.542;2023-03-01T06:05:37;0.00;0.00;0.00
78330;PMS7003;67594;53.854;-1.542;2023-03-01T06:08:02;0.00;0.00;0.00
78330;PMS7003;67594;53.854;-1.542;2023-03-01T06:10:28;0.00;0.00;0.00
78330;PMS7003;67594;53.854;-1.542;2023-03-01T06:12:54;0.00;0.00;0.00
78330;PMS7003;67594;53.854;-1.542;2023-03-01T06:15:19;0.00;0.00;0.00
78330;PMS7003;67594;53.854;-1.542;2023-03-01T06:17:45;0.00;0.00;0.00
78330;PMS7003;67594;53.854;-1.542;2023-03-01T06:20:12;0.00;0.00;0.00
78330;PMS7003;67594;53.854;-1.542;2023-03-01T06:22:43;0.00;0.00;0.00
78330;PMS7003;67594;53.854;-1.542;2023-03-01T06:25:09;0.00;0.00;0.00
78330;PMS7003;67594;53.854;-1.542;2023-03-01T06:27:36;0.00;0.00;0.00
78330;PMS7003;67594;53.854;-1.542;2023-03-01T06:30:02;0.00;0.00;0.00
78330;PMS7003;67594;53.854;-1.542;2023-03-01T06:32:28;0.00;0.00;0.00
78330;PMS7003;67594;53.854;-1.542;2023-03-01T06:34:53;0.00;0.00;0.00
78330;PMS7003;67594;53.854;-1.542;2023-03-01T06:37:18;0.00;0.00;0.00
78330;PMS7003;67594;53.854;-1.542;2023-03-01T06:39:43;0.00;0.00;0.00
78330;PMS7003;67594;53.854;-1.542;2023-03-01T06:42:09;0.00;0.00;0.00
78330;PMS7003;67594;53.854;-1.542;2023-03-01T06:44:34;0.00;0.00;0.00
78330;PMS7003;67594;53.854;-1.542;2023-03-01T06:46:59;0.00;0.00;0.00
78330;PMS7003;67594;53.854;-1.542;2023-03-01T06:49:25;0.00;0.00;0.00
78330;PMS7003;67594;53.854;-1.542;2023-03-01T06:51:50;0.00;0.00;0.00
78330;PMS7003;67594;53.854;-1.542;2023-03-01T06:54:15;0.00;0.00;0.00
78330;PMS7003;67594;53.854;-1.542;2023-03-01T06:56:41;0.00;0.00;0.00
78330;PMS7003;67594;53.854;-1.542;2023-03-01T06:59:06;0.00;0.00;0.00
78330;PMS7003;67594;53.854;-1.542;2023-03-01T07:01:31;0.00;0.00;0.00
78330;PMS7003;67594;53.854;-1.542;2023-03-01T07:03:57;0.00;0.00;0.00
78330;PMS7003;67594;53.854;-1.542;2023-03-01T07:06:22;0.00;0.00;0.00
78330;PMS7003;67594;53.854;-1.542;2023-03-01T07:08:48;0.00;0.00;0.00
78330;PMS7003;67594;53.854;-1.542;2023-03-01T07:11:14;0.00;0.00;0.00
78330;PMS7003;67594;53.854;-1.542;2023-03-01T07:13:40;0.00;0.00;0.00
78330;PMS7003;67594;53.854;-1.542;2023-03-01T07:16:06;0.00;0.00;0.00
78330;PMS7003;67594;53.854;-1.542;2023-03-01T07:18:31;0.00;0.00;0.00
78330;PMS7003;67594;53.854;-1.542;2023-03-01T07:20:57;0.00;0.00;0.00
78330;PMS7003;67594;53.854;-1.542;2023-03-01T07:23:22;0.00;0.00;0.00
78330;PMS7003;67594;53.854;-1.542;2023-03-01T07:25:54;0.00;0.00;0.00
78330;PMS7003;67594;53.854;-1.542;2023-03-01T07:28:19;0.00;0.00;0.00
78330;PMS7003;67594;53.854;-1.542;2023-03-01T07:30:45;0.00;0.00;0.00
78330;PMS7003;67594;53.854;-1.542;2023-03-01T07:33:10;0.00;0.00;0.00
78330;PMS7003;67594;53.854;-1.542;2023-03-01T07:35:35;0.00;0.00;0.00
78330;PMS7003;67594;53.854;-1.542;2023-03-01T07:38:01;0.00;0.00;0.00
78330;PMS7003;67594;53.854;-1.542;2023-03-01T07:40:26;0.00;0.00;0.00
78330;PMS7003;67594;53.854;-1.542;2023-03-01T07:42:55;0.00;0.00;0.00
78330;PMS7003;67594;53.854;-1.542;2023-03-01T07:45:24;0.00;0.00;0.00
78330;PMS7003;67594;53.854;-1.542;2023-03-01T07:47:50;10.25;9.50;5.00
78330;PMS7003;67594;53.854;-1.542;2023-03-01T07:50:17;4.00;3.00;2.00
78330;PMS7003;67594;53.854;-1.542;2023-03-01T07:52:44;1.00;1.00;0.50
78330;PMS7003;67594;53.854;-1.542;2023-03-01T07:55:11;0.00;0.00;0.00
78330;PMS7003;67594;53.854;-1.542;2023-03-01T07:57:36;0.00;0.00;0.00
78330;PMS7003;67594;53.854;-1.542;2023-03-01T08:00:02;0.00;0.00;0.00
78330;PMS7003;67594;53.854;-1.542;2023-03-01T08:02:28;0.00;0.00;0.00
78330;PMS7003;67594;53.854;-1.542;2023-03-01T08:04:53;0.00;0.00;0.00
78330;PMS7003;67594;53.854;-1.542;2023-03-01T08:07:19;0.00;0.00;0.00
78330;PMS7003;67594;53.854;-1.542;2023-03-01T08:09:44;1.00;0.00;0.00
78330;PMS7003;67594;53.854;-1.542;2023-03-01T08:12:09;0.00;0.00;0.00
78330;PMS7003;67594;53.854;-1.542;2023-03-01T08:14:35;0.00;0.00;0.00
78330;PMS7003;67594;53.854;-1.542;2023-03-01T08:17:00;0.25;0.00;0.00
78330;PMS7003;67594;53.854;-1.542;2023-03-01T08:19:25;0.00;0.00;0.00
78330;PMS7003;67594;53.854;-1.542;2023-03-01T08:21:51;0.00;0.00;0.00
78330;PMS7003;67594;53.854;-1.542;2023-03-01T08:24:16;0.00;0.00;0.00
78330;PMS7003;67594;53.854;-1.542;2023-03-01T08:26:41;0.00;0.00;0.00
78330;PMS7003;67594;53.854;-1.542;2023-03-01T08:29:06;1.00;1.00;0.00
78330;PMS7003;67594;53.854;-1.542;2023-03-01T08:31:33;0.00;0.00;0.00
78330;PMS7003;67594;53.854;-1.542;2023-03-01T08:34:01;0.00;0.00;0.00
78330;PMS7003;67594;53.854;-1.542;2023-03-01T08:36:29;1.00;0.00;0.00
78330;PMS7003;67594;53.854;-1.542;2023-03-01T08:38:56;0.00;0.00;0.00
78330;PMS7003;67594;53.854;-1.542;2023-03-01T08:41:23;0.00;0.00;0.00
78330;PMS7003;67594;53.854;-1.542;2023-03-01T08:43:48;0.00;0.00;0.00
78330;PMS7003;67594;53.854;-1.542;2023-03-01T08:46:14;0.00;0.00;0.00
78330;PMS7003;67594;53.854;-1.542;2023-03-01T08:48:40;2.00;1.50;1.00
78330;PMS7003;67594;53.854;-1.542;2023-03-01T08:51:14;8.00;4.00;2.00
78330;PMS7003;67594;53.854;-1.542;2023-03-01T08:53:41;5.50;4.00;2.00
78330;PMS7003;67594;53.854;-1.542;2023-03-01T08:56:07;7.75;7.00;2.50
78330;PMS7003;67594;53.854;-1.542;2023-03-01T08:58:34;5.00;4.00;3.00
78330;PMS7003;67594;53.854;-1.542;2023-03-01T09:01:00;7.00;6.25;3.00
78330;PMS7003;67594;53.854;-1.542;2023-03-01T09:03:25;4.00;3.00;2.00
78330;PMS7003;67594;53.854;-1.542;2023-03-01T09:05:51;5.00;4.50;3.00
78330;PMS7003;67594;53.854;-1.542;2023-03-01T09:08:17;5.75;4.00;3.00
78330;PMS7003;67594;53.854;-1.542;2023-03-01T09:10:43;4.25;3.50;2.00
78330;PMS7003;67594;53.854;-1.542;2023-03-01T09:13:08;3.25;3.00;2.00
78330;PMS7003;67594;53.854;-1.542;2023-03-01T09:15:33;3.75;2.75;1.75
78330;PMS7003;67594;53.854;-1.542;2023-03-01T09:18:01;3.25;1.75;1.00
78330;PMS7003;67594;53.854;-1.542;2023-03-01T09:20:26;1.25;1.25;1.00
78330;PMS7003;67594;53.854;-1.542;2023-03-01T09:22:51;2.00;1.00;0.00
78330;PMS7003;67594;53.854;-1.542;2023-03-01T09:25:17;2.00;2.00;1.00
78330;PMS7003;67594;53.854;-1.542;2023-03-01T09:27:42;1.75;1.00;1.00
78330;PMS7003;67594;53.854;-1.542;2023-03-01T09:30:07;1.75;0.75;0.00
78330;PMS7003;67594;53.854;-1.542;2023-03-01T09:32:33;0.50;0.00;0.00
78330;PMS7003;67594;53.854;-1.542;2023-03-01T09:34:59;1.50;1.00;1.00
78330;PMS7003;67594;53.854;-1.542;2023-03-01T09:37:24;6.25;4.75;3.00
78330;PMS7003;67594;53.854;-1.542;2023-03-01T09:39:49;10.00;8.00;4.00
78330;PMS7003;67594;53.854;-1.542;2023-03-01T09:42:14;12.00;11.00;7.00
78330;PMS7003;67594;53.854;-1.542;2023-03-01T09:44:42;14.25;10.00;6.00
78330;PMS7003;67594;53.854;-1.542;2023-03-01T09:47:20;10.25;10.00;6.25
78330;PMS7003;67594;53.854;-1.542;2023-03-01T09:49:55;12.50;12.00;6.00
78330;PMS7003;67594;53.854;-1.542;2023-03-01T09:54:58;5.00;3.00;2.00
78330;PMS7003;67594;53.854;-1.542;2023-03-01T09:57:28;11.25;8.25;5.25
78330;PMS7003;67594;53.854;-1.542;2023-03-01T10:05:14;7.33;6.00;3.67
78330;PMS7003;67594;53.854;-1.542;2023-03-01T10:07:48;10.25;8.75;4.50
78330;PMS7003;67594;53.854;-1.542;2023-03-01T10:10:40;7.00;6.00;3.75
78330;PMS7003;67594;53.854;-1.542;2023-03-01T10:13:17;7.75;7.00;4.00
78330;PMS7003;67594;53.854;-1.542;2023-03-01T10:15:48;6.50;6.00;4.00
78330;PMS7003;67594;53.854;-1.542;2023-03-01T10:18:19;5.75;4.75;3.00
78330;PMS7003;67594;53.854;-1.542;2023-03-01T10:23:16;6.00;5.50;3.00
78330;PMS7003;67594;53.854;-1.542;2023-03-01T10:28:42;6.00;4.75;1.75
78330;PMS7003;67594;53.854;-1.542;2023-03-01T10:31:24;3.00;2.00;1.00
78330;PMS7003;67594;53.854;-1.542;2023-03-01T10:33:52;2.00;2.00;1.00
78330;PMS7003;67594;53.854;-1.542;2023-03-01T10:36:17;3.75;3.25;1.50
78330;PMS7003;67594;53.854;-1.542;2023-03-01T10:38:53;3.75;2.00;1.00
78330;PMS7003;67594;53.854;-1.542;2023-03-01T10:41:21;2.00;2.00;1.25
78330;PMS7003;67594;53.854;-1.542;2023-03-01T10:46:32;1.00;1.00;0.00
78330;PMS7003;67594;53.854;-1.542;2023-03-01T10:51:51;1.75;1.75;1.00
78330;PMS7003;67594;53.854;-1.542;2023-03-01T10:54:38;1.50;0.75;0.50
78330;PMS7003;67594;53.854;-1.542;2023-03-01T10:57:03;0.00;0.00;0.00
78330;PMS7003;67594;53.854;-1.542;2023-03-01T10:59:31;1.00;0.00;0.00
78330;PMS7003;67594;53.854;-1.542;2023-03-01T11:04:29;2.00;1.00;0.75
78330;PMS7003;67594;53.854;-1.542;2023-03-01T11:06:58;0.00;0.00;0.00
78330;PMS7003;67594;53.854;-1.542;2023-03-01T11:09:25;1.00;1.00;0.00
78330;PMS7003;67594;53.854;-1.542;2023-03-01T11:11:57;1.00;0.25;0.00
78330;PMS7003;67594;53.854;-1.542;2023-03-01T11:14:25;1.00;0.00;0.00
78330;PMS7003;67594;53.854;-1.542;2023-03-01T11:17:01;1.25;0.00;0.00
78330;PMS7003;67594;53.854;-1.542;2023-03-01T11:19:27;0.00;0.00;0.00
78330;PMS7003;67594;53.854;-1.542;2023-03-01T11:21:57;0.00;0.00;0.00
78330;PMS7003;67594;53.854;-1.542;2023-03-01T11:24:29;0.00;0.00;0.00
78330;PMS7003;67594;53.854;-1.542;2023-03-01T11:27:04;0.00;0.00;0.00
78330;PMS7003;67594;53.854;-1.542;2023-03-01T11:30:18;0.00;0.00;0.00
78330;PMS7003;67594;53.854;-1.542;2023-03-01T11:35:47;0.00;0.00;0.00
78330;PMS7003;67594;53.854;-1.542;2023-03-01T11:38:22;0.00;0.00;0.00
78330;PMS7003;67594;53.854;-1.542;2023-03-01T11:51:58;0.00;0.00;0.00
78330;PMS7003;67594;53.854;-1.542;2023-03-01T12:03:14;0.00;0.00;0.00
78330;PMS7003;67594;53.854;-1.542;2023-03-01T12:08:24;0.00;0.00;0.00
78330;PMS7003;67594;53.854;-1.542;2023-03-01T12:20:02;0.00;0.00;0.00
78330;PMS7003;67594;53.854;-1.542;2023-03-01T12:28:04;0.00;0.00;0.00
78330;PMS7003;67594;53.854;-1.542;2023-03-01T12:36:46;3.00;3.00;3.00
78330;PMS7003;67594;53.854;-1.542;2023-03-01T12:42:09;6.75;6.50;6.50
78330;PMS7003;67594;53.854;-1.542;2023-03-01T12:50:46;11.00;11.00;11.00
78330;PMS7003;67594;53.854;-1.542;2023-03-01T12:53:27;16.75;16.75;16.50
78330;PMS7003;67594;53.854;-1.542;2023-03-01T12:56:01;12.00;12.00;12.00
78330;PMS7003;67594;53.854;-1.542;2023-03-01T13:01:56;16.00;16.00;15.75
78330;PMS7003;67594;53.854;-1.542;2023-03-01T13:10:06;17.50;17.50;17.00
78330;PMS7003;67594;53.854;-1.542;2023-03-01T13:20:51;11.00;10.75;10.25
78330;PMS7003;67594;53.854;-1.542;2023-03-01T13:31:00;11.25;11.25;11.25
78330;PMS7003;67594;53.854;-1.542;2023-03-01T13:33:33;10.25;10.25;10.00
78330;PMS7003;67594;53.854;-1.542;2023-03-01T13:36:05;12.00;12.00;12.00
78330;PMS7003;67594;53.854;-1.542;2023-03-01T13:41:04;11.00;10.00;9.75
78330;PMS7003;67594;53.854;-1.542;2023-03-01T13:43:36;7.50;7.50;7.50
78330;PMS7003;67594;53.854;-1.542;2023-03-01T13:46:10;9.25;9.25;9.25
78330;PMS7003;67594;53.854;-1.542;2023-03-01T13:48:43;6.75;6.75;6.75
78330;PMS7003;67594;53.854;-1.542;2023-03-01T13:51:12;5.50;5.50;5.50
78330;PMS7003;67594;53.854;-1.542;2023-03-01T13:53:44;7.00;7.00;6.75
78330;PMS7003;67594;53.854;-1.542;2023-03-01T13:56:13;7.00;6.25;6.25
78330;PMS7003;67594;53.854;-1.542;2023-03-01T13:58:52;3.50;3.50;3.50
78330;PMS7003;67594;53.854;-1.542;2023-03-01T14:01:40;4.75;4.75;4.75
78330;PMS7003;67594;53.854;-1.542;2023-03-01T14:07:22;3.00;3.00;3.00
78330;PMS7003;67594;53.854;-1.542;2023-03-01T14:09:50;3.00;3.00;3.00
78330;PMS7003;67594;53.854;-1.542;2023-03-01T14:17:43;2.00;2.00;2.00
78330;PMS7003;67594;53.854;-1.542;2023-03-01T14:20:18;2.50;2.50;2.00
78330;PMS7003;67594;53.854;-1.542;2023-03-01T14:22:59;2.00;2.00;2.00
78330;PMS7003;67594;53.854;-1.542;2023-03-01T14:27:55;1.75;1.75;1.75
78330;PMS7003;67594;53.854;-1.542;2023-03-01T14:30:34;1.50;1.50;1.00
78330;PMS7003;67594;53.854;-1.542;2023-03-01T14:33:04;2.25;2.25;2.25
78330;PMS7003;67594;53.854;-1.542;2023-03-01T14:35:42;2.00;1.00;1.00
78330;PMS7003;67594;53.854;-1.542;2023-03-01T14:38:22;1.00;1.00;1.00
78330;PMS7003;67594;53.854;-1.542;2023-03-01T14:40:49;1.50;1.25;1.00
78330;PMS7003;67594;53.854;-1.542;2023-03-01T14:43:21;1.00;1.00;1.00
78330;PMS7003;67594;53.854;-1.542;2023-03-01T14:45:48;0.00;0.00;0.00
78330;PMS7003;67594;53.854;-1.542;2023-03-01T14:48:15;1.00;1.00;1.00
78330;PMS7003;67594;53.854;-1.542;2023-03-01T14:50:41;1.00;1.00;1.00
78330;PMS7003;67594;53.854;-1.542;2023-03-01T14:53:18;0.00;0.00;0.00
78330;PMS7003;67594;53.854;-1.542;2023-03-01T14:55:47;1.00;0.00;0.00
78330;PMS7003;67594;53.854;-1.542;2023-03-01T14:58:19;1.00;0.00;0.00
78330;PMS7003;67594;53.854;-1.542;2023-03-01T15:00:48;0.50;0.50;0.50
78330;PMS7003;67594;53.854;-1.542;2023-03-01T15:06:01;0.00;0.00;0.00
78330;PMS7003;67594;53.854;-1.542;2023-03-01T15:08:28;0.00;0.00;0.00
78330;PMS7003;67594;53.854;-1.542;2023-03-01T15:13:25;0.00;0.00;0.00
78330;PMS7003;67594;53.854;-1.542;2023-03-01T15:16:00;0.00;0.00;0.00
78330;PMS7003;67594;53.854;-1.542;2023-03-01T15:18:30;0.00;0.00;0.00
78330;PMS7003;67594;53.854;-1.542;2023-03-01T15:20:56;0.50;0.00;0.00
78330;PMS7003;67594;53.854;-1.542;2023-03-01T15:23:31;0.00;0.00;0.00
78330;PMS7003;67594;53.854;-1.542;2023-03-01T15:25:57;0.00;0.00;0.00
78330;PMS7003;67594;53.854;-1.542;2023-03-01T15:28:28;0.00;0.00;0.00
78330;PMS7003;67594;53.854;-1.542;2023-03-01T15:31:00;0.00;0.00;0.00
78330;PMS7003;67594;53.854;-1.542;2023-03-01T15:36:02;0.00;0.00;0.00
78330;PMS7003;67594;53.854;-1.542;2023-03-01T15:38:52;0.00;0.00;0.00
78330;PMS7003;67594;53.854;-1.542;2023-03-01T15:41:23;0.00;0.00;0.00
78330;PMS7003;67594;53.854;-1.542;2023-03-01T15:43:51;0.00;0.00;0.00
78330;PMS7003;67594;53.854;-1.542;2023-03-01T15:46:27;0.00;0.00;0.00
78330;PMS7003;67594;53.854;-1.542;2023-03-01T15:48:56;0.00;0.00;0.00
78330;PMS7003;67594;53.854;-1.542;2023-03-01T15:51:27;0.00;0.00;0.00
78330;PMS7003;67594;53.854;-1.542;2023-03-01T15:53:55;0.00;0.00;0.00
78330;PMS7003;67594;53.854;-1.542;2023-03-01T15:56:24;0.00;0.00;0.00
78330;PMS7003;67594;53.854;-1.542;2023-03-01T15:58:50;0.00;0.00;0.00
78330;PMS7003;67594;53.854;-1.542;2023-03-01T16:01:16;0.00;0.00;0.00
78330;PMS7003;67594;53.854;-1.542;2023-03-01T16:03:42;0.00;0.00;0.00
78330;PMS7003;67594;53.854;-1.542;2023-03-01T16:06:08;0.00;0.00;0.00
78330;PMS7003;67594;53.854;-1.542;2023-03-01T16:08:34;0.00;0.00;0.00
78330;PMS7003;67594;53.854;-1.542;2023-03-01T16:11:00;0.00;0.00;0.00
78330;PMS7003;67594;53.854;-1.542;2023-03-01T16:13:25;0.00;0.00;0.00
78330;PMS7003;67594;53.854;-1.542;2023-03-01T16:15:50;0.00;0.00;0.00
78330;PMS7003;67594;53.854;-1.542;2023-03-01T16:18:16;0.00;0.00;0.00
78330;PMS7003;67594;53.854;-1.542;2023-03-01T16:20:41;0.00;0.00;0.00
78330;PMS7003;67594;53.854;-1.542;2023-03-01T16:23:07;0.00;0.00;0.00
78330;PMS7003;67594;53.854;-1.542;2023-03-01T16:25:35;0.00;0.00;0.00
78330;PMS7003;67594;53.854;-1.542;2023-03-01T16:28:01;0.00;0.00;0.00
78330;PMS7003;67594;53.854;-1.542;2023-03-01T16:30:26;0.00;0.00;0.00
78330;PMS7003;67594;53.854;-1.542;2023-03-01T16:32:52;0.00;0.00;0.00